Time,TemperatureF,DewpointF,PressureIn,WindDirection,WindDirectionDegrees,WindSpeedMPH,WindSpeedGustMPH,Humidity,HourlyPrecipIn,Conditions,Clouds,dailyrainin,SoftwareType,DateUTC
2013-10-03 00:04:00,48.0,40.5,29.95,SE,135,0.0,-999.0,75,-99.99,,,0.00,Acu-Link.com,2013-10-03 07:04:00,
2013-10-03 00:19:00,47.7,40.2,29.93,SE,135,0.0,-999.0,75,-99.99,,,0.00,Acu-Link.com,2013-10-03 07:19:00,
2013-10-03 00:35:00,48.0,39.4,29.94,SE,135,0.0,-999.0,72,-99.99,,,0.00,Acu-Link.com,2013-10-03 07:35:00,
2013-10-03 00:50:00,47.1,39.6,29.94,SE,135,0.0,-999.0,75,-99.99,,,0.00,Acu-Link.com,2013-10-03 07:50:00,
2013-10-03 01:07:00,48.7,40.4,29.94,WSW,247,0.0,-999.0,73,-99.99,,,0.00,Acu-Link.com,2013-10-03 08:07:00,
2013-10-03 01:22:00,47.7,40.2,29.94,West,270,2.7,-999.0,75,-99.99,,,0.00,Acu-Link.com,2013-10-03 08:22:00,
2013-10-03 01:39:00,48.0,40.5,29.94,NW,315,0.0,-999.0,75,-99.99,,,0.00,Acu-Link.com,2013-10-03 08:39:00,
2013-10-03 01:54:00,48.0,40.1,29.94,NW,315,0.0,-999.0,74,-99.99,,,0.00,Acu-Link.com,2013-10-03 08:54:00,
2013-10-03 02:09:00,46.9,39.4,29.94,NW,315,1.7,-999.0,75,-99.99,,,0.00,Acu-Link.com,2013-10-03 09:09:00,
2013-10-03 02:24:00,46.2,39.4,29.95,NW,315,1.7,-999.0,77,-99.99,,,0.00,Acu-Link.com,2013-10-03 09:24:00,
2013-10-03 02:39:00,47.3,39.4,29.96,NW,315,1.7,-999.0,74,-99.99,,,0.00,Acu-Link.com,2013-10-03 09:39:00,
2013-10-03 02:55:00,48.2,40.0,29.95,NW,315,0.0,-999.0,73,-99.99,,,0.00,Acu-Link.com,2013-10-03 09:55:00,
2013-10-03 03:10:00,46.8,39.3,29.95,NW,315,0.0,-999.0,75,-99.99,,,0.00,Acu-Link.com,2013-10-03 10:10:00,
2013-10-03 03:25:00,47.7,39.5,29.95,NW,315,2.2,-999.0,73,-99.99,,,0.00,Acu-Link.com,2013-10-03 10:25:00,
2013-10-03 03:40:00,46.6,39.1,29.96,NW,315,0.0,-999.0,75,-99.99,,,0.00,Acu-Link.com,2013-10-03 10:40:00,
2013-10-03 03:56:00,46.8,39.3,29.96,NW,315,0.0,-999.0,75,-99.99,,,0.00,Acu-Link.com,2013-10-03 10:56:00,
2013-10-03 04:11:00,46.9,39.7,29.96,NW,315,3.2,-999.0,76,-99.99,,,0.00,Acu-Link.com,2013-10-03 11:11:00,
2013-10-03 04:26:00,46.2,39.1,29.95,NW,315,0.0,-999.0,76,-99.99,,,0.00,Acu-Link.com,2013-10-03 11:26:00,
2013-10-03 04:41:00,47.3,39.8,29.97,NW,315,0.0,-999.0,75,-99.99,,,0.00,Acu-Link.com,2013-10-03 11:41:00,
2013-10-03 04:57:00,45.9,39.8,29.97,NW,315,0.0,-999.0,79,-99.99,,,0.00,Acu-Link.com,2013-10-03 11:57:00,
2013-10-03 05:13:00,45.5,39.4,29.97,NW,315,0.0,-999.0,79,-99.99,,,0.00,Acu-Link.com,2013-10-03 12:13:00,
2013-10-03 05:28:00,45.7,39.6,29.96,NW,315,0.0,-999.0,79,-99.99,,,0.00,Acu-Link.com,2013-10-03 12:28:00,
2013-10-03 05:43:00,45.9,39.4,29.97,NW,315,0.0,-999.0,78,-99.99,,,0.00,Acu-Link.com,2013-10-03 12:43:00,
2013-10-03 05:58:00,45.1,39.3,29.97,NW,315,0.0,-999.0,80,-99.99,,,0.00,Acu-Link.com,2013-10-03 12:58:00,
2013-10-03 06:13:00,45.7,39.6,29.97,NW,315,0.0,-999.0,79,-99.99,,,0.00,Acu-Link.com,2013-10-03 13:13:00,
2013-10-03 06:29:00,45.7,39.6,29.97,NW,315,3.7,-999.0,79,-99.99,,,0.00,Acu-Link.com,2013-10-03 13:29:00,
2013-10-03 06:44:00,46.6,39.4,29.98,WNW,292,0.0,-999.0,76,-99.99,,,0.00,Acu-Link.com,2013-10-03 13:44:00,
2013-10-03 06:59:00,45.3,39.2,29.98,WNW,292,0.0,-999.0,79,-99.99,,,0.00,Acu-Link.com,2013-10-03 13:59:00,
2013-10-03 07:15:00,44.8,39.0,29.98,WNW,292,0.0,-999.0,80,-99.99,,,0.00,Acu-Link.com,2013-10-03 14:15:00,
2013-10-03 07:30:00,45.0,39.2,29.98,WNW,292,0.0,-999.0,80,-99.99,,,0.00,Acu-Link.com,2013-10-03 14:30:00,
2013-10-03 07:45:00,45.9,39.4,29.99,WNW,292,0.0,-999.0,78,-99.99,,,0.00,Acu-Link.com,2013-10-03 14:45:00,
2013-10-03 08:00:00,47.3,39.8,29.99,WNW,292,0.0,-999.0,75,-99.99,,,0.00,Acu-Link.com,2013-10-03 15:00:00,
2013-10-03 08:15:00,47.8,40.3,30.01,WNW,292,0.0,-999.0,75,-99.99,,,0.00,Acu-Link.com,2013-10-03 15:15:00,
2013-10-03 08:31:00,51.8,41.6,30.00,WNW,292,1.1,-999.0,68,-99.99,,,0.00,Acu-Link.com,2013-10-03 15:31:00,
2013-10-03 08:46:00,55.0,43.0,30.01,North,0,3.2,-999.0,64,-99.99,,,0.00,Acu-Link.com,2013-10-03 15:46:00,
2013-10-03 09:01:00,59.7,44.4,30.00,NNW,337,4.7,-999.0,57,-99.99,,,0.00,Acu-Link.com,2013-10-03 16:01:00,
2013-10-03 09:16:00,60.8,44.5,30.00,NE,45,6.3,-999.0,55,-99.99,,,0.00,Acu-Link.com,2013-10-03 16:16:00,
2013-10-03 09:31:00,60.8,44.5,30.01,South,180,4.7,-999.0,55,-99.99,,,0.00,Acu-Link.com,2013-10-03 16:31:00,
2013-10-03 09:46:00,61.5,44.2,30.01,NNE,22,6.8,-999.0,53,-99.99,,,0.00,Acu-Link.com,2013-10-03 16:46:00,
2013-10-03 10:01:00,62.1,43.8,30.01,NE,45,7.3,-999.0,51,-99.99,,,0.00,Acu-Link.com,2013-10-03 17:01:00,
2013-10-03 10:16:00,63.7,44.2,30.01,East,90,2.2,-999.0,49,-99.99,,,0.00,Acu-Link.com,2013-10-03 17:16:00,
2013-10-03 10:32:00,66.6,42.2,30.01,NE,45,4.7,-999.0,41,-99.99,,,0.00,Acu-Link.com,2013-10-03 17:32:00,
2013-10-03 10:47:00,66.7,41.0,30.02,ENE,67,8.9,-999.0,39,-99.99,,,0.00,Acu-Link.com,2013-10-03 17:47:00,
2013-10-03 11:02:00,65.3,39.7,30.01,NNE,22,6.3,-999.0,39,-99.99,,,0.00,Acu-Link.com,2013-10-03 18:02:00,
2013-10-03 11:17:00,66.4,38.6,30.01,North,0,7.8,-999.0,36,-99.99,,,0.00,Acu-Link.com,2013-10-03 18:17:00,
2013-10-03 11:32:00,67.3,39.4,29.99,NE,45,7.3,-999.0,36,-99.99,,,0.00,Acu-Link.com,2013-10-03 18:32:00,
2013-10-03 11:47:00,68.2,38.8,29.99,WNW,292,3.2,-999.0,34,-99.99,,,0.00,Acu-Link.com,2013-10-03 18:47:00,
2013-10-03 12:02:00,68.4,38.9,29.99,NNW,337,4.7,-999.0,34,-99.99,,,0.00,Acu-Link.com,2013-10-03 19:02:00,
2013-10-03 12:18:00,68.9,38.6,29.98,NNW,337,3.7,-999.0,33,-99.99,,,0.00,Acu-Link.com,2013-10-03 19:18:00,
2013-10-03 12:33:00,70.3,39.0,29.98,NNE,22,7.3,-999.0,32,-99.99,,,0.00,Acu-Link.com,2013-10-03 19:33:00,
2013-10-03 12:48:00,71.2,39.0,29.97,NW,315,7.8,-999.0,31,-99.99,,,0.00,Acu-Link.com,2013-10-03 19:48:00,
2013-10-03 13:03:00,70.5,39.2,29.96,NNW,337,3.7,-999.0,32,-99.99,,,0.00,Acu-Link.com,2013-10-03 20:03:00,
2013-10-03 13:18:00,71.6,36.8,29.95,ENE,67,4.2,-999.0,28,-99.99,,,0.00,Acu-Link.com,2013-10-03 20:18:00,
2013-10-03 13:33:00,71.4,35.7,29.94,NE,45,6.8,-999.0,27,-99.99,,,0.00,Acu-Link.com,2013-10-03 20:33:00,
2013-10-03 13:49:00,72.1,36.3,29.93,East,90,5.8,-999.0,27,-99.99,,,0.00,Acu-Link.com,2013-10-03 20:49:00,
2013-10-03 14:04:00,72.5,34.7,29.93,ENE,67,6.3,-999.0,25,-99.99,,,0.00,Acu-Link.com,2013-10-03 21:04:00,
2013-10-03 14:19:00,73.4,35.4,29.92,West,270,6.8,-999.0,25,-99.99,,,0.00,Acu-Link.com,2013-10-03 21:19:00,
2013-10-03 14:34:00,73.2,36.3,29.92,NE,45,8.3,-999.0,26,-99.99,,,0.00,Acu-Link.com,2013-10-03 21:34:00,
2013-10-03 14:49:00,74.5,35.3,29.92,WNW,292,8.3,-999.0,24,-99.99,,,0.00,Acu-Link.com,2013-10-03 21:49:00,
2013-10-03 15:05:00,73.4,34.4,29.91,NE,45,6.3,-999.0,24,-99.99,,,0.00,Acu-Link.com,2013-10-03 22:05:00,
2013-10-03 15:20:00,74.3,35.2,29.91,North,0,5.8,-999.0,24,-99.99,,,0.00,Acu-Link.com,2013-10-03 22:20:00,
2013-10-03 15:35:00,73.0,36.1,29.90,NE,45,7.3,-999.0,26,-99.99,,,0.00,Acu-Link.com,2013-10-03 22:35:00,
2013-10-03 15:50:00,73.0,35.1,29.89,NNE,22,14.5,-999.0,25,-99.99,,,0.00,Acu-Link.com,2013-10-03 22:50:00,
2013-10-03 16:05:00,72.0,36.2,29.90,NW,315,6.3,-999.0,27,-99.99,,,0.00,Acu-Link.com,2013-10-03 23:05:00,
2013-10-03 16:20:00,71.8,36.9,29.90,WNW,292,4.7,-999.0,28,-99.99,,,0.00,Acu-Link.com,2013-10-03 23:20:00,
2013-10-03 16:35:00,72.0,36.2,29.89,NNE,22,10.9,-999.0,27,-99.99,,,0.00,Acu-Link.com,2013-10-03 23:35:00,
2013-10-03 16:50:00,72.0,36.2,29.89,East,90,6.3,-999.0,27,-99.99,,,0.00,Acu-Link.com,2013-10-03 23:50:00,
2013-10-03 17:06:00,71.6,35.8,29.89,SW,225,2.2,-999.0,27,-99.99,,,0.00,Acu-Link.com,2013-10-04 00:06:00,
2013-10-03 17:21:00,71.1,35.4,29.89,West,270,5.3,-999.0,27,-99.99,,,0.00,Acu-Link.com,2013-10-04 00:21:00,
2013-10-03 17:36:00,70.7,36.9,29.89,West,270,6.3,-999.0,29,-99.99,,,0.00,Acu-Link.com,2013-10-04 00:36:00,
2013-10-03 17:51:00,69.8,37.8,29.90,NNW,337,5.3,-999.0,31,-99.99,,,0.00,Acu-Link.com,2013-10-04 00:51:00,
2013-10-03 18:06:00,69.3,38.2,29.90,West,270,4.7,-999.0,32,-99.99,,,0.00,Acu-Link.com,2013-10-04 01:06:00,
2013-10-03 18:21:00,69.4,39.8,29.89,NW,315,4.7,-999.0,34,-99.99,,,0.00,Acu-Link.com,2013-10-04 01:21:00,
2013-10-03 18:36:00,67.6,38.2,29.88,East,90,2.2,-999.0,34,-99.99,,,0.00,Acu-Link.com,2013-10-04 01:36:00,
2013-10-03 18:52:00,65.8,38.8,29.88,NW,315,3.2,-999.0,37,-99.99,,,0.00,Acu-Link.com,2013-10-04 01:52:00,
2013-10-03 19:07:00,64.6,37.7,29.89,WNW,292,3.2,-999.0,37,-99.99,,,0.00,Acu-Link.com,2013-10-04 02:07:00,
2013-10-03 19:22:00,63.7,36.9,29.88,West,270,1.1,-999.0,37,-99.99,,,0.00,Acu-Link.com,2013-10-04 02:22:00,
2013-10-03 19:38:00,63.3,37.3,29.89,WNW,292,3.2,-999.0,38,-99.99,,,0.00,Acu-Link.com,2013-10-04 02:38:00,
2013-10-03 19:53:00,62.8,36.8,29.89,WNW,292,3.2,-999.0,38,-99.99,,,0.00,Acu-Link.com,2013-10-04 02:53:00,
2013-10-03 20:08:00,62.4,37.1,29.89,WNW,292,3.2,-999.0,39,-99.99,,,0.00,Acu-Link.com,2013-10-04 03:08:00,
2013-10-03 20:23:00,61.7,37.1,29.89,WNW,292,0.0,-999.0,40,-99.99,,,0.00,Acu-Link.com,2013-10-04 03:23:00,
2013-10-03 20:38:00,61.5,37.0,29.89,WNW,292,1.7,-999.0,40,-99.99,,,0.00,Acu-Link.com,2013-10-04 03:38:00,
2013-10-03 20:54:00,61.2,36.7,29.90,NW,315,0.0,-999.0,40,-99.99,,,0.00,Acu-Link.com,2013-10-04 03:54:00,
2013-10-03 21:55:00,62.2,35.6,29.90,West,270,3.7,-999.0,37,-99.99,,,0.00,Acu-Link.com,2013-10-04 04:55:00,
2013-10-03 22:10:00,64.4,36.2,29.90,WSW,247,4.7,-999.0,35,-99.99,,,0.00,Acu-Link.com,2013-10-04 05:10:00,
2013-10-03 22:41:00,64.4,38.2,29.89,NNE,22,4.7,-999.0,38,-99.99,,,0.00,Acu-Link.com,2013-10-04 05:41:00,
2013-10-03 22:56:00,65.1,38.2,29.90,WNW,292,8.3,-999.0,37,-99.99,,,0.00,Acu-Link.com,2013-10-04 05:56:00,
2013-10-03 23:11:00,65.1,37.5,29.90,NNE,22,4.2,-999.0,36,-99.99,,,0.00,Acu-Link.com,2013-10-04 06:11:00,
2013-10-03 23:26:00,65.3,36.9,29.91,NNW,337,3.7,-999.0,35,-99.99,,,0.00,Acu-Link.com,2013-10-04 06:26:00,
2013-10-03 23:42:00,65.1,37.5,29.90,NNW,337,3.2,-999.0,36,-99.99,,,0.00,Acu-Link.com,2013-10-04 06:42:00,
2013-10-03 23:57:00,64.6,38.4,29.91,ENE,67,3.7,-999.0,38,-99.99,,,0.00,Acu-Link.com,2013-10-04 06:57:00,